createdAt,value
2018-07-07T00:00:34.701Z,19.00
2018-07-07T00:03:03.898Z,18.93
2018-07-07T00:05:33.113Z,18.88
2018-07-07T00:08:02.278Z,18.83
2018-07-07T00:10:31.469Z,18.86
2018-07-07T00:13:00.669Z,18.88
2018-07-07T00:15:29.853Z,18.83
2018-07-07T00:17:58.976Z,18.76
2018-07-07T00:20:28.197Z,18.70
2018-07-07T00:22:57.145Z,18.63
2018-07-07T00:25:26.449Z,18.57
2018-07-07T00:27:55.722Z,18.52
2018-07-07T00:30:25.261Z,18.52
2018-07-07T00:32:54.230Z,18.51
2018-07-07T00:35:23.345Z,18.50
2018-07-07T00:37:52.542Z,18.48
2018-07-07T00:40:22.025Z,18.51
2018-07-07T00:42:51.081Z,18.54
2018-07-07T00:45:20.136Z,18.44
2018-07-07T00:47:48.841Z,18.48
2018-07-07T00:50:17.545Z,18.56
2018-07-07T00:52:46.266Z,18.58
2018-07-07T00:55:15.424Z,18.54
2018-07-07T00:57:44.109Z,18.52
2018-07-07T01:00:12.845Z,18.48
2018-07-07T01:02:41.645Z,18.42
2018-07-07T01:05:20.169Z,18.36
2018-07-07T01:07:49.316Z,18.24
2018-07-07T01:10:18.601Z,18.20
2018-07-07T01:12:47.900Z,18.17
2018-07-07T01:15:17.105Z,18.21
2018-07-07T01:17:46.284Z,18.22
2018-07-07T01:20:15.610Z,18.36
2018-07-07T01:22:44.782Z,18.32
2018-07-07T01:25:13.982Z,18.29
2018-07-07T01:27:43.265Z,18.36
2018-07-07T01:30:12.465Z,18.33
2018-07-07T01:32:41.689Z,18.25
2018-07-07T01:35:10.961Z,18.17
2018-07-07T01:37:40.188Z,18.25
2018-07-07T01:40:09.377Z,18.36
2018-07-07T01:42:38.708Z,18.36
2018-07-07T01:45:07.799Z,18.44
2018-07-07T01:47:36.981Z,18.36
2018-07-07T01:50:05.982Z,18.26
2018-07-07T01:52:35.162Z,18.23
2018-07-07T01:55:04.357Z,18.19
2018-07-07T01:57:33.677Z,18.12
2018-07-07T02:00:02.852Z,18.07
2018-07-07T02:02:32.021Z,18.13
2018-07-07T02:05:01.138Z,18.12
2018-07-07T02:07:30.618Z,18.18
2018-07-07T02:09:59.769Z,18.15
2018-07-07T02:12:29.042Z,18.21
2018-07-07T02:14:58.277Z,18.15
2018-07-07T02:17:27.341Z,18.12
2018-07-07T02:19:56.539Z,18.01
2018-07-07T02:22:25.837Z,17.94
2018-07-07T02:24:55.139Z,18.09
2018-07-07T02:27:24.989Z,18.13
2018-07-07T02:29:54.625Z,18.22
2018-07-07T02:32:23.761Z,18.13
2018-07-07T02:34:52.999Z,17.99
2018-07-07T02:37:22.257Z,17.85
2018-07-07T02:39:51.589Z,17.80
2018-07-07T02:42:20.753Z,17.82
2018-07-07T02:44:49.768Z,17.80
2018-07-07T02:47:19.054Z,17.81
2018-07-07T02:49:48.354Z,17.73
2018-07-07T02:52:17.579Z,17.73
2018-07-07T02:54:46.655Z,17.75
2018-07-07T02:57:15.855Z,17.82
2018-07-07T02:59:45.039Z,17.86
2018-07-07T03:02:14.351Z,17.92
2018-07-07T03:04:43.553Z,18.03
2018-07-07T03:07:12.734Z,18.12
2018-07-07T03:09:41.932Z,18.13
2018-07-07T03:12:11.136Z,18.03
2018-07-07T03:14:40.331Z,17.94
2018-07-07T03:17:09.526Z,17.88
2018-07-07T03:19:38.742Z,17.94
2018-07-07T03:22:08.065Z,18.01
2018-07-07T03:24:37.238Z,18.15
2018-07-07T03:27:06.402Z,18.20
2018-07-07T03:29:35.705Z,18.27
2018-07-07T03:32:04.913Z,18.38
2018-07-07T03:34:34.129Z,18.42
2018-07-07T03:37:02.827Z,18.58
2018-07-07T03:39:31.556Z,19.41
2018-07-07T03:42:00.274Z,20.97
2018-07-07T03:44:28.985Z,22.50
2018-07-07T03:46:57.694Z,23.81
2018-07-07T03:49:26.442Z,24.67
2018-07-07T03:51:55.216Z,25.31
2018-07-07T03:54:23.935Z,25.89
2018-07-07T03:56:52.638Z,26.64
2018-07-07T03:59:21.329Z,27.68
2018-07-07T04:01:50.074Z,28.31
2018-07-07T04:04:18.828Z,28.79
2018-07-07T04:06:47.531Z,29.41
2018-07-07T04:09:16.245Z,30.37
2018-07-07T04:11:45.041Z,31.03
2018-07-07T04:14:13.759Z,31.14
2018-07-07T04:16:42.525Z,30.96
2018-07-07T04:19:11.226Z,31.06
2018-07-07T04:21:39.959Z,31.33
2018-07-07T04:24:08.693Z,31.72
2018-07-07T04:26:37.385Z,32.20
2018-07-07T04:29:06.071Z,32.17
2018-07-07T04:31:34.902Z,32.25
2018-07-07T04:34:03.782Z,32.19
2018-07-07T04:36:32.518Z,32.24
2018-07-07T04:39:01.205Z,32.27
2018-07-07T04:41:29.941Z,31.51
2018-07-07T04:43:58.923Z,32.30
2018-07-07T04:46:28.079Z,33.03
2018-07-07T04:48:57.390Z,33.08
2018-07-07T04:51:26.565Z,33.35
2018-07-07T04:53:55.656Z,33.22
2018-07-07T04:56:24.864Z,33.26
2018-07-07T04:58:54.090Z,33.99
2018-07-07T05:01:23.257Z,33.72
2018-07-07T05:03:52.309Z,34.32
2018-07-07T05:06:21.233Z,34.30
2018-07-07T05:08:50.341Z,34.74
2018-07-07T05:11:19.402Z,34.56
2018-07-07T05:13:48.533Z,34.23
2018-07-07T05:16:17.730Z,34.11
2018-07-07T05:18:46.992Z,34.94
2018-07-07T05:21:15.687Z,35.50
2018-07-07T05:23:44.689Z,35.26
2018-07-07T05:26:13.708Z,34.17
2018-07-07T05:28:42.897Z,33.71
2018-07-07T05:31:12.133Z,34.77
2018-07-07T05:33:41.109Z,35.81
2018-07-07T05:36:10.180Z,35.95
2018-07-07T05:38:39.316Z,37.05
2018-07-07T05:41:08.582Z,37.33
2018-07-07T05:43:37.709Z,36.82
2018-07-07T05:46:06.773Z,37.26
2018-07-07T05:48:36.076Z,37.34
2018-07-07T05:51:05.168Z,36.68
2018-07-07T05:53:34.286Z,34.38
2018-07-07T05:56:03.512Z,32.53
2018-07-07T05:58:32.606Z,31.11
2018-07-07T06:01:01.584Z,31.15
2018-07-07T06:03:30.574Z,31.39
2018-07-07T06:05:59.540Z,32.59
2018-07-07T06:08:29.195Z,33.36
2018-07-07T06:10:58.179Z,33.73
2018-07-07T06:13:27.353Z,33.35
2018-07-07T06:15:56.538Z,33.84
2018-07-07T06:18:25.904Z,34.28
2018-07-07T06:20:55.180Z,34.45
2018-07-07T06:23:24.384Z,34.75
2018-07-07T06:25:53.370Z,34.53
2018-07-07T06:28:22.455Z,34.34
2018-07-07T06:30:51.237Z,36.19
2018-07-07T06:33:19.953Z,37.17
2018-07-07T06:35:48.993Z,38.22
2018-07-07T06:38:18.401Z,39.66
2018-07-07T06:40:47.588Z,40.15
2018-07-07T06:43:16.638Z,40.86
2018-07-07T06:45:45.865Z,40.49
2018-07-07T06:48:14.988Z,41.08
2018-07-07T06:50:44.221Z,42.35
2018-07-07T06:53:13.376Z,42.26
2018-07-07T06:55:42.633Z,42.61
2018-07-07T06:58:11.782Z,42.02
2018-07-07T07:00:40.981Z,41.46
2018-07-07T07:03:10.198Z,41.77
2018-07-07T07:05:39.240Z,41.23
2018-07-07T07:08:08.543Z,41.51
2018-07-07T07:10:37.569Z,40.54
2018-07-07T07:13:06.825Z,40.87
2018-07-07T07:15:35.878Z,41.30
2018-07-07T07:18:04.959Z,42.60
2018-07-07T07:20:34.082Z,42.66
2018-07-07T07:23:03.335Z,42.38
2018-07-07T07:25:32.371Z,41.14
2018-07-07T07:28:01.488Z,42.17
2018-07-07T07:30:30.650Z,44.03
2018-07-07T07:32:59.357Z,44.12
2018-07-07T07:35:28.093Z,43.13
2018-07-07T07:37:56.837Z,43.65
2018-07-07T07:40:25.614Z,42.54
2018-07-07T07:42:54.334Z,40.93
2018-07-07T07:45:23.034Z,39.65
2018-07-07T07:47:51.732Z,38.89
2018-07-07T07:50:20.470Z,38.09
2018-07-07T07:52:49.268Z,37.85
2018-07-07T07:55:17.958Z,38.19
2018-07-07T07:57:46.661Z,39.64
2018-07-07T08:00:15.374Z,41.45
2018-07-07T08:02:44.057Z,42.02
2018-07-07T08:05:12.793Z,41.23
2018-07-07T08:07:41.490Z,41.61
2018-07-07T08:10:10.169Z,42.74
2018-07-07T08:12:39.032Z,42.42
2018-07-07T08:15:07.738Z,42.08
2018-07-07T08:17:36.465Z,41.11
2018-07-07T08:20:05.294Z,40.46
2018-07-07T08:22:34.030Z,40.23
2018-07-07T08:25:02.722Z,40.37
2018-07-07T08:27:31.413Z,40.46
2018-07-07T08:30:00.165Z,39.09
2018-07-07T08:32:28.887Z,38.53
2018-07-07T08:34:57.583Z,38.71
2018-07-07T08:37:26.278Z,38.45
2018-07-07T08:39:55.005Z,37.72
2018-07-07T08:42:23.753Z,36.95
2018-07-07T08:44:52.458Z,36.65
2018-07-07T08:47:21.762Z,35.93
2018-07-07T08:49:51.277Z,35.21
2018-07-07T08:52:20.470Z,35.46
2018-07-07T08:54:49.421Z,35.55
2018-07-07T08:57:18.454Z,36.26
2018-07-07T08:59:47.437Z,36.67
2018-07-07T09:02:16.761Z,37.77
2018-07-07T09:04:46.838Z,38.85
2018-07-07T09:07:15.962Z,40.39
2018-07-07T09:09:45.185Z,41.14
2018-07-07T09:12:14.309Z,42.91
2018-07-07T09:14:43.047Z,43.22
2018-07-07T09:17:11.995Z,42.92
2018-07-07T09:19:41.250Z,42.71
2018-07-07T09:22:10.757Z,42.75
2018-07-07T09:24:40.125Z,41.50
2018-07-07T09:27:09.409Z,41.28
2018-07-07T09:29:38.602Z,40.84
2018-07-07T09:32:07.742Z,41.48
2018-07-07T09:34:36.969Z,41.21
2018-07-07T09:37:05.926Z,40.96
2018-07-07T09:39:36.026Z,39.29
2018-07-07T09:42:05.162Z,39.51
2018-07-07T09:44:34.244Z,39.64
2018-07-07T09:47:03.269Z,39.44
2018-07-07T09:49:32.434Z,38.63
2018-07-07T09:52:01.173Z,39.37
2018-07-07T09:54:29.916Z,39.96
2018-07-07T09:56:58.741Z,40.24
2018-07-07T09:59:27.614Z,40.23
2018-07-07T10:01:56.945Z,39.10
2018-07-07T10:04:25.674Z,39.61
2018-07-07T10:06:54.518Z,39.53
2018-07-07T10:09:23.281Z,38.72
2018-07-07T10:11:52.211Z,38.35
2018-07-07T10:14:20.954Z,38.77
2018-07-07T10:16:49.689Z,39.60
2018-07-07T10:19:18.503Z,39.99
2018-07-07T10:21:47.201Z,39.83
2018-07-07T10:24:16.076Z,40.46
2018-07-07T10:26:45.169Z,40.75
2018-07-07T10:29:14.098Z,40.69
2018-07-07T10:31:42.998Z,41.02
2018-07-07T10:34:11.729Z,41.33
2018-07-07T10:36:40.486Z,41.41
2018-07-07T10:39:09.203Z,40.80
2018-07-07T10:41:38.705Z,40.81
2018-07-07T10:44:07.617Z,40.02
2018-07-07T10:46:36.680Z,40.98
2018-07-07T10:49:05.793Z,41.24
2018-07-07T10:51:34.517Z,41.27
2018-07-07T10:54:03.209Z,41.04
2018-07-07T10:56:31.914Z,39.81
2018-07-07T10:59:00.661Z,38.57
2018-07-07T11:01:29.369Z,38.04
2018-07-07T11:03:58.338Z,37.17
2018-07-07T11:06:27.538Z,36.67
2018-07-07T11:08:56.534Z,36.14
2018-07-07T11:11:25.682Z,36.16
2018-07-07T11:13:54.925Z,36.90
2018-07-07T11:16:24.137Z,38.43
2018-07-07T11:18:53.325Z,39.75
2018-07-07T11:21:22.522Z,39.75
2018-07-07T11:23:51.590Z,40.00
2018-07-07T11:26:20.530Z,40.19
2018-07-07T11:28:49.721Z,40.25
2018-07-07T11:31:18.413Z,39.88
2018-07-07T11:33:47.128Z,40.51
2018-07-07T11:36:15.869Z,40.75
2018-07-07T11:38:44.677Z,40.18
2018-07-07T11:41:16.722Z,38.67
2018-07-07T11:43:45.433Z,36.99
2018-07-07T11:46:14.603Z,35.93
2018-07-07T11:48:43.364Z,35.53
2018-07-07T11:51:12.231Z,35.38
2018-07-07T11:53:40.966Z,35.91
2018-07-07T11:56:09.678Z,36.42
2018-07-07T11:58:38.593Z,36.77
2018-07-07T12:01:07.399Z,36.70
2018-07-07T12:03:36.671Z,36.37
2018-07-07T12:06:05.942Z,35.21
2018-07-07T12:08:34.969Z,34.88
2018-07-07T12:11:04.094Z,35.30
2018-07-07T12:13:33.083Z,35.56
2018-07-07T12:16:01.790Z,35.85
2018-07-07T12:18:30.805Z,35.54
2018-07-07T12:21:00.246Z,35.46
2018-07-07T12:23:29.577Z,35.10
2018-07-07T12:25:58.622Z,34.31
2018-07-07T12:28:27.432Z,34.69
2018-07-07T12:30:56.517Z,34.53
2018-07-07T12:33:25.577Z,34.59
2018-07-07T12:35:54.781Z,34.47
2018-07-07T12:38:23.569Z,33.76
2018-07-07T12:40:53.000Z,32.43
2018-07-07T12:43:22.096Z,32.08
2018-07-07T12:45:51.269Z,31.93
2018-07-07T12:48:20.582Z,31.50
2018-07-07T12:50:49.768Z,31.17
2018-07-07T12:53:18.862Z,30.72
2018-07-07T12:55:48.065Z,30.59
2018-07-07T12:58:17.055Z,30.51
2018-07-07T13:00:46.184Z,30.33
2018-07-07T13:03:15.273Z,29.97
2018-07-07T13:05:44.247Z,29.89
2018-07-07T13:08:13.442Z,29.75
2018-07-07T13:10:42.628Z,29.36
2018-07-07T13:13:12.063Z,29.33
2018-07-07T13:15:41.175Z,29.24
2018-07-07T13:18:10.355Z,29.14
2018-07-07T13:20:39.551Z,28.95
2018-07-07T13:23:08.481Z,28.96
2018-07-07T13:25:37.660Z,28.80
2018-07-07T13:28:06.937Z,28.67
2018-07-07T13:30:36.129Z,28.24
2018-07-07T13:33:05.365Z,28.22
2018-07-07T13:35:34.636Z,28.16
2018-07-07T13:38:03.890Z,28.13
2018-07-07T13:40:33.011Z,27.97
2018-07-07T13:43:02.221Z,27.78
2018-07-07T13:45:31.436Z,27.52
2018-07-07T13:48:00.509Z,27.28
2018-07-07T13:50:29.629Z,27.00
2018-07-07T13:52:58.990Z,26.83
2018-07-07T13:55:28.111Z,26.73
2018-07-07T13:57:57.292Z,26.67
2018-07-07T14:00:26.505Z,26.50
2018-07-07T14:02:55.522Z,26.10
2018-07-07T14:05:24.797Z,25.84
2018-07-07T14:07:54.094Z,25.27
2018-07-07T14:10:23.153Z,24.12
2018-07-07T14:12:52.199Z,22.80
2018-07-07T14:15:21.186Z,22.02
2018-07-07T14:17:50.318Z,21.45
2018-07-07T14:20:19.515Z,21.11
2018-07-07T14:22:48.707Z,20.85
2018-07-07T14:25:17.889Z,20.41
2018-07-07T14:27:46.986Z,20.24
2018-07-07T14:30:16.091Z,20.21
2018-07-07T14:32:45.182Z,20.10
2018-07-07T14:35:14.360Z,20.01
2018-07-07T14:37:43.919Z,20.18
2018-07-07T14:40:12.965Z,20.19
2018-07-07T14:42:50.359Z,20.25
2018-07-07T14:45:22.196Z,20.40
2018-07-07T14:47:52.423Z,20.39
2018-07-07T14:50:21.858Z,20.44
2018-07-07T14:52:51.076Z,20.35
2018-07-07T14:55:21.634Z,20.35
2018-07-07T14:57:50.681Z,20.36
2018-07-07T15:00:21.257Z,20.31
2018-07-07T15:02:51.562Z,20.34
2018-07-07T15:05:20.636Z,20.43
2018-07-07T15:07:50.001Z,20.55
2018-07-07T15:10:19.370Z,20.53
2018-07-07T15:12:49.374Z,20.50
2018-07-07T15:15:18.562Z,20.49
2018-07-07T15:17:47.991Z,20.48
2018-07-07T15:20:17.794Z,20.57
2018-07-07T15:22:47.042Z,20.57
2018-07-07T15:25:16.349Z,20.59
2018-07-07T15:27:45.566Z,20.61
2018-07-07T15:30:14.745Z,20.69
2018-07-07T15:32:44.022Z,20.77
2018-07-07T15:35:13.256Z,20.89
2018-07-07T15:37:42.447Z,20.91
2018-07-07T15:40:11.541Z,20.97
2018-07-07T15:42:40.678Z,21.03
2018-07-07T15:45:09.951Z,21.09
2018-07-07T15:47:39.126Z,21.12
2018-07-07T15:50:08.317Z,21.06
2018-07-07T15:52:37.706Z,21.09
2018-07-07T15:55:06.826Z,21.08
2018-07-07T15:57:35.898Z,21.04
2018-07-07T16:00:05.709Z,21.03
2018-07-07T16:02:34.837Z,20.99
2018-07-07T16:05:04.047Z,20.95
2018-07-07T16:07:33.145Z,20.88
2018-07-07T16:10:02.553Z,20.81
2018-07-07T16:12:31.758Z,20.75
2018-07-07T16:15:00.945Z,20.66
2018-07-07T16:17:30.229Z,20.61
2018-07-07T16:19:59.303Z,20.51
2018-07-07T16:22:28.729Z,20.40
2018-07-07T16:24:57.945Z,20.33
2018-07-07T16:27:27.061Z,20.28
2018-07-07T16:29:56.390Z,20.29
2018-07-07T16:32:25.594Z,20.20
2018-07-07T16:34:54.761Z,20.20
2018-07-07T16:37:24.124Z,20.24
2018-07-07T16:39:53.358Z,20.28
2018-07-07T16:42:23.225Z,20.33
2018-07-07T16:44:52.524Z,20.37
2018-07-07T16:47:21.987Z,20.35
2018-07-07T16:49:50.958Z,20.32
2018-07-07T16:52:20.233Z,20.33
2018-07-07T16:54:49.756Z,20.39
2018-07-07T16:57:19.045Z,20.45
2018-07-07T16:59:48.551Z,20.45
2018-07-07T17:02:18.471Z,20.44
2018-07-07T17:04:47.452Z,20.41
2018-07-07T17:07:16.610Z,20.43
2018-07-07T17:09:45.362Z,20.39
2018-07-07T17:12:14.641Z,20.42
2018-07-07T17:14:43.849Z,20.44
2018-07-07T17:17:13.044Z,20.45
2018-07-07T17:19:42.225Z,20.50
2018-07-07T17:22:11.468Z,20.55
2018-07-07T17:24:40.731Z,20.59
2018-07-07T17:27:10.032Z,20.59
2018-07-07T17:29:39.257Z,20.67
2018-07-07T17:32:08.820Z,20.73
2018-07-07T17:34:38.144Z,20.78
2018-07-07T17:37:07.425Z,20.81
2018-07-07T17:39:36.645Z,20.80
2018-07-07T17:42:05.790Z,20.81
2018-07-07T17:44:34.969Z,20.81
2018-07-07T17:47:04.231Z,20.81
2018-07-07T17:49:33.602Z,20.86
2018-07-07T17:52:02.822Z,20.89
2018-07-07T17:54:32.049Z,20.88
2018-07-07T17:57:01.434Z,20.87
2018-07-07T17:59:30.433Z,20.85
2018-07-07T18:01:59.525Z,20.80
2018-07-07T18:04:28.739Z,20.81
2018-07-07T18:06:58.010Z,20.79
2018-07-07T18:09:27.249Z,20.75
2018-07-07T18:11:56.360Z,20.70
2018-07-07T18:14:25.502Z,20.67
2018-07-07T18:16:54.816Z,20.66
2018-07-07T18:19:24.022Z,20.61
2018-07-07T18:21:53.197Z,20.58
2018-07-07T18:24:22.505Z,20.53
2018-07-07T18:26:51.718Z,20.48
2018-07-07T18:29:20.809Z,20.48
2018-07-07T18:31:49.928Z,20.46
2018-07-07T18:34:19.201Z,20.45
2018-07-07T18:36:48.397Z,20.47
2018-07-07T18:39:17.669Z,20.42
2018-07-07T18:41:47.022Z,20.41
2018-07-07T18:44:16.382Z,20.43
2018-07-07T18:46:45.138Z,20.43
2018-07-07T18:49:14.291Z,20.42
2018-07-07T18:51:43.778Z,20.51
2018-07-07T18:54:13.416Z,20.54
2018-07-07T18:56:42.188Z,20.48
2018-07-07T18:59:11.463Z,20.43
2018-07-07T19:01:40.782Z,20.42
2018-07-07T19:04:10.045Z,20.46
2018-07-07T19:06:39.737Z,20.51
2018-07-07T19:09:08.832Z,20.54
2018-07-07T19:11:38.013Z,20.52
2018-07-07T19:14:07.090Z,20.53
2018-07-07T19:16:36.013Z,20.55
2018-07-07T19:19:04.966Z,20.49
2018-07-07T19:21:38.695Z,20.46
2018-07-07T19:24:12.600Z,20.34
2018-07-07T19:26:46.638Z,19.98
2018-07-07T19:29:15.480Z,20.20
2018-07-07T19:31:49.346Z,20.25
2018-07-07T19:34:23.335Z,20.33
2018-07-07T19:36:57.206Z,20.37
2018-07-07T19:39:26.174Z,20.38
2018-07-07T19:41:54.992Z,20.41
2018-07-07T19:44:24.299Z,20.41
2018-07-07T19:46:53.150Z,20.38
2018-07-07T19:49:22.028Z,20.33
2018-07-07T19:51:50.761Z,20.33
2018-07-07T19:54:19.525Z,20.29
2018-07-07T19:56:48.259Z,20.25
2018-07-07T19:59:17.210Z,20.20
2018-07-07T20:01:45.981Z,20.17
2018-07-07T20:04:14.715Z,20.17
2018-07-07T20:06:43.474Z,20.21
2018-07-07T20:09:12.218Z,20.21
2018-07-07T20:11:41.090Z,20.23
2018-07-07T20:14:09.814Z,20.27
2018-07-07T20:16:49.570Z,20.20
2018-07-07T20:19:21.334Z,20.19
2018-07-07T20:22:07.040Z,20.15
2018-07-07T20:24:39.547Z,20.13
2018-07-07T20:27:14.179Z,20.17
2018-07-07T20:29:42.939Z,20.17
2018-07-07T20:32:16.737Z,20.12
2018-07-07T20:34:45.520Z,20.10
2018-07-07T20:37:14.274Z,20.10
2018-07-07T20:39:43.238Z,20.08
2018-07-07T20:42:12.078Z,20.07
2018-07-07T20:44:40.893Z,20.06
2018-07-07T20:47:10.330Z,20.04
2018-07-07T20:49:39.081Z,20.02
2018-07-07T20:52:07.826Z,20.02
2018-07-07T20:54:36.565Z,19.95
2018-07-07T20:57:05.358Z,19.92
2018-07-07T20:59:34.106Z,19.91
2018-07-07T21:02:03.036Z,19.93
2018-07-07T21:04:31.910Z,19.94
2018-07-07T21:07:00.663Z,20.01
2018-07-07T21:09:29.511Z,19.98
2018-07-07T21:11:58.238Z,19.98
2018-07-07T21:14:27.026Z,20.02
2018-07-07T21:16:55.753Z,20.02
2018-07-07T21:19:24.477Z,20.04
2018-07-07T21:21:53.391Z,20.06
2018-07-07T21:24:24.059Z,20.07
2018-07-07T21:26:52.867Z,20.10
2018-07-07T21:29:21.684Z,20.11
2018-07-07T21:31:50.426Z,20.13
2018-07-07T21:34:19.201Z,20.11
2018-07-07T21:36:47.953Z,20.21
2018-07-07T21:39:16.670Z,20.25
2018-07-07T21:41:45.449Z,20.25
2018-07-07T21:44:14.189Z,20.24
2018-07-07T21:46:43.177Z,20.25
2018-07-07T21:49:12.069Z,20.26
2018-07-07T21:51:40.968Z,20.30
2018-07-07T21:54:10.077Z,20.28
2018-07-07T21:56:39.421Z,20.30
2018-07-07T21:59:13.237Z,20.31
2018-07-07T22:01:54.734Z,20.38
2018-07-07T22:04:29.492Z,20.32
2018-07-07T22:07:03.529Z,20.21
2018-07-07T22:09:33.416Z,20.19
2018-07-07T22:12:02.183Z,20.19
2018-07-07T22:14:31.291Z,20.14
2018-07-07T22:17:00.055Z,20.08
2018-07-07T22:19:28.802Z,20.05
2018-07-07T22:22:00.570Z,20.06
2018-07-07T22:24:29.356Z,20.08
2018-07-07T22:27:00.935Z,20.12
2018-07-07T22:29:29.890Z,20.10
2018-07-07T22:31:59.883Z,20.04
2018-07-07T22:34:36.843Z,20.00
2018-07-07T22:37:05.797Z,20.03
2018-07-07T22:39:40.587Z,19.99
2018-07-07T22:42:11.578Z,20.01
2018-07-07T22:44:41.344Z,20.02
2018-07-07T22:47:10.168Z,20.04
2018-07-07T22:49:38.882Z,20.06
2018-07-07T22:52:08.709Z,20.02
2018-07-07T22:54:37.434Z,20.00
2018-07-07T22:57:06.170Z,20.04
2018-07-07T22:59:34.939Z,20.05
2018-07-07T23:02:03.826Z,20.03
2018-07-07T23:04:32.703Z,20.02
2018-07-07T23:07:01.498Z,20.03
2018-07-07T23:09:30.229Z,20.10
2018-07-07T23:11:58.987Z,20.14
2018-07-07T23:14:27.783Z,20.17
2018-07-07T23:17:04.832Z,20.17
2018-07-07T23:19:33.553Z,20.18
2018-07-07T23:22:02.294Z,20.18
2018-07-07T23:24:31.034Z,20.11
2018-07-07T23:26:59.787Z,19.99
2018-07-07T23:29:28.530Z,19.96
2018-07-07T23:31:57.249Z,19.99
2018-07-07T23:34:25.965Z,19.99
2018-07-07T23:36:54.901Z,20.01
2018-07-07T23:39:23.627Z,19.96
2018-07-07T23:41:52.394Z,19.95
2018-07-07T23:44:21.114Z,19.89
2018-07-07T23:46:49.859Z,19.85
2018-07-07T23:49:18.655Z,19.86
2018-07-07T23:51:47.374Z,19.79
2018-07-07T23:54:16.154Z,19.73
2018-07-07T23:56:45.023Z,19.66
2018-07-07T23:59:13.753Z,19.68
